Waimanalo, HI (96795)

3:12 AM HST on February 07, 2016 (GMT -1000)
Enchanted Lakes | | Change Station
CLOSE
Current Station
Personal Weather Station
Location: Kailua, HI
Elevation: 16 ft
Nearby Weather Stations

Elev 16 ft 21.38 °N, 157.73 °W | Updated 32 seconds ago

Overcast
Overcast
69.1 °F
Feels Like 69.1 °F
N
7.3
Wind Variable Wind from NNW

Today
High -- | Low -- °F
--% Chance of Precip.
Yesterday
High -- | Low -- °F
Precip. -- in
Pressure 29.95 in
Visibility -9999.0 miles
Clouds Mostly Cloudy 3600 ft
Overcast 4800 ft
Dew Point 63 °F
Humidity 80%
Rainfall 0.00 in
Snow Depth Not available.
7:05 AM 6:24 PM
Waning Crescent, 2% visible
METAR PHNG 071257Z AUTO 36015G23KT BKN036 OVC048 21/16 A2996 RMK AO2 SLP140 T02110161 $
Pressure 29.95 in
Visibility -9999.0 miles
Clouds Mostly Cloudy 3600 ft
Overcast 4800 ft
Dew Point 63 °F
Humidity 80%
Rainfall 0.00 in
Snow Depth Not available.
7:05 AM 6:24 PM
Waning Crescent, 2% visible
METAR PHNG 071257Z AUTO 36015G23KT BKN036 OVC048 21/16 A2996 RMK AO2 SLP140 T02110161 $

10-Day Weather Forecast

Almanac

Astronomy

Feb. 07, 2016 Rise Set
Actual Time
Civil Twilight
Nautical Twilight
Astronomical Twilight
Moon
Length of Visible Light
Length of Day
Tomorrow will be .
, % of the Moon is Illuminated

Today's Extremes

State Highs State Lows

Community

WunderPhotos

Upload Photos

1,891,190 photos uploaded!

WunderBlog® & News

Nearby

Air Quality

  Air Quality AQ Index Pollutant
Not available.

Snow Depth

Station Depth Elevation

Earthquake Activity

City Distance Mag. Time & Date
Minimum magnitude displayed is 2.5.

Coastal Water Temperatures

Place Temperature

Stations

Nearby Weather Stations

Station Location Temp. Windchill Dew Point Humidity Wind Precip. Elev Updated Type
                   

Watches & Warnings

There are currently no watches in effect.